sensor_id;sensor_type;location;lat;lon;timestamp;pressure;altitude;pressure_sealevel;temperature;humidity
29359;BME280;16347;53.232;6.556;2023-02-28T00:01:25;103235.06;;;10.03;59.70
29359;BME280;16347;53.232;6.556;2023-02-28T00:03:54;103237.78;;;10.03;59.16
29359;BME280;16347;53.232;6.556;2023-02-28T00:06:23;103232.44;;;10.02;59.69
29359;BME280;16347;53.232;6.556;2023-02-28T00:08:51;103234.66;;;10.09;59.65
29359;BME280;16347;53.232;6.556;2023-02-28T00:11:20;103231.75;;;10.12;59.59
29359;BME280;16347;53.232;6.556;2023-02-28T00:13:48;103223.00;;;10.07;59.56
29359;BME280;16347;53.232;6.556;2023-02-28T00:16:18;103216.50;;;9.96;59.46
29359;BME280;16347;53.232;6.556;2023-02-28T00:18:48;103226.50;;;10.09;59.21
29359;BME280;16347;53.232;6.556;2023-02-28T00:21:17;103224.47;;;10.13;59.52
29359;BME280;16347;53.232;6.556;2023-02-28T00:23:45;103213.59;;;10.13;59.38
29359;BME280;16347;53.232;6.556;2023-02-28T00:26:14;103216.22;;;10.14;59.59
29359;BME280;16347;53.232;6.556;2023-02-28T00:28:44;103208.00;;;10.16;59.60
29359;BME280;16347;53.232;6.556;2023-02-28T00:31:12;103208.00;;;10.16;59.25
29359;BME280;16347;53.232;6.556;2023-02-28T00:33:40;103214.47;;;10.13;59.48
29359;BME280;16347;53.232;6.556;2023-02-28T00:36:11;103217.13;;;10.15;59.80
29359;BME280;16347;53.232;6.556;2023-02-28T00:38:40;103206.31;;;10.13;59.57
29359;BME280;16347;53.232;6.556;2023-02-28T00:41:09;103210.69;;;10.02;59.51
29359;BME280;16347;53.232;6.556;2023-02-28T00:43:38;103215.63;;;10.09;59.69
29359;BME280;16347;53.232;6.556;2023-02-28T00:46:06;103220.28;;;10.07;59.63
29359;BME280;16347;53.232;6.556;2023-02-28T00:48:35;103225.56;;;10.10;59.60
29359;BME280;16347;53.232;6.556;2023-02-28T00:51:03;103217.00;;;10.02;59.52
29359;BME280;16347;53.232;6.556;2023-02-28T00:53:33;103215.72;;;10.08;60.06
29359;BME280;16347;53.232;6.556;2023-02-28T00:56:01;103218.34;;;10.09;59.59
29359;BME280;16347;53.232;6.556;2023-02-28T00:58:30;103212.25;;;10.06;59.87
29359;BME280;16347;53.232;6.556;2023-02-28T01:00:58;103204.16;;;10.04;60.16
29359;BME280;16347;53.232;6.556;2023-02-28T01:03:26;103203.41;;;10.02;59.80
29359;BME280;16347;53.232;6.556;2023-02-28T01:05:55;103204.97;;;9.92;60.29
29359;BME280;16347;53.232;6.556;2023-02-28T01:08:23;103211.34;;;9.91;60.71
29359;BME280;16347;53.232;6.556;2023-02-28T01:10:52;103207.88;;;9.89;60.48
29359;BME280;16347;53.232;6.556;2023-02-28T01:13:21;103207.19;;;10.00;60.34
29359;BME280;16347;53.232;6.556;2023-02-28T01:15:51;103202.94;;;9.96;60.72
29359;BME280;16347;53.232;6.556;2023-02-28T01:18:20;103200.50;;;9.91;60.56
29359;BME280;16347;53.232;6.556;2023-02-28T01:20:50;103200.59;;;10.04;60.48
29359;BME280;16347;53.232;6.556;2023-02-28T01:23:19;103199.81;;;10.02;60.53
29359;BME280;16347;53.232;6.556;2023-02-28T01:25:48;103192.34;;;10.05;60.42
29359;BME280;16347;53.232;6.556;2023-02-28T01:28:17;103202.44;;;10.03;60.66
29359;BME280;16347;53.232;6.556;2023-02-28T01:30:48;103202.34;;;10.05;60.67
29359;BME280;16347;53.232;6.556;2023-02-28T01:33:16;103204.16;;;10.04;60.46
29359;BME280;16347;53.232;6.556;2023-02-28T01:35:44;103208.38;;;10.10;60.48
29359;BME280;16347;53.232;6.556;2023-02-28T01:38:12;103203.22;;;10.05;60.38
29359;BME280;16347;53.232;6.556;2023-02-28T01:40:48;103198.66;;;10.06;60.78
29359;BME280;16347;53.232;6.556;2023-02-28T01:43:21;103189.41;;;10.08;60.79
29359;BME280;16347;53.232;6.556;2023-02-28T01:45:50;103201.09;;;10.10;60.42
29359;BME280;16347;53.232;6.556;2023-02-28T01:48:20;103193.41;;;10.03;61.02
29359;BME280;16347;53.232;6.556;2023-02-28T01:50:50;103187.66;;;10.07;60.62
29359;BME280;16347;53.232;6.556;2023-02-28T01:53:23;103180.50;;;10.06;60.81
29359;BME280;16347;53.232;6.556;2023-02-28T01:55:52;103172.03;;;10.25;60.50
29359;BME280;16347;53.232;6.556;2023-02-28T01:58:23;103173.22;;;10.07;60.62
29359;BME280;16347;53.232;6.556;2023-02-28T02:00:51;103163.53;;;10.03;61.21
29359;BME280;16347;53.232;6.556;2023-02-28T02:03:20;103170.41;;;9.94;61.07
29359;BME280;16347;53.232;6.556;2023-02-28T02:05:48;103168.00;;;9.90;61.48
29359;BME280;16347;53.232;6.556;2023-02-28T02:08:19;103166.72;;;9.95;61.48
29359;BME280;16347;53.232;6.556;2023-02-28T02:10:49;103165.75;;;9.96;61.08
29359;BME280;16347;53.232;6.556;2023-02-28T02:13:47;103162.34;;;10.07;61.47
29359;BME280;16347;53.232;6.556;2023-02-28T02:16:33;103164.41;;;10.03;61.46
29359;BME280;16347;53.232;6.556;2023-02-28T02:19:10;103160.81;;;9.89;62.12
29359;BME280;16347;53.232;6.556;2023-02-28T02:24:51;103158.38;;;9.98;61.81
29359;BME280;16347;53.232;6.556;2023-02-28T02:27:27;103162.66;;;10.16;61.71
29359;BME280;16347;53.232;6.556;2023-02-28T02:33:34;103152.31;;;10.07;62.08
29359;BME280;16347;53.232;6.556;2023-02-28T02:36:13;103147.91;;;9.92;61.81
29359;BME280;16347;53.232;6.556;2023-02-28T02:38:48;103153.72;;;10.00;62.13
29359;BME280;16347;53.232;6.556;2023-02-28T02:41:24;103154.56;;;10.01;62.08
29359;BME280;16347;53.232;6.556;2023-02-28T02:44:01;103149.06;;;10.02;61.85
29359;BME280;16347;53.232;6.556;2023-02-28T02:46:33;103144.56;;;10.01;62.29
29359;BME280;16347;53.232;6.556;2023-02-28T02:49:06;103153.72;;;10.00;62.34
29359;BME280;16347;53.232;6.556;2023-02-28T02:51:38;103153.41;;;10.05;61.82
29359;BME280;16347;53.232;6.556;2023-02-28T02:54:11;103158.63;;;10.08;62.33
29359;BME280;16347;53.232;6.556;2023-02-28T02:56:42;103160.78;;;10.03;62.24
29359;BME280;16347;53.232;6.556;2023-02-28T02:59:14;103160.53;;;9.93;62.11
29359;BME280;16347;53.232;6.556;2023-02-28T03:01:50;103158.28;;;10.00;62.44
29359;BME280;16347;53.232;6.556;2023-02-28T03:04:22;103156.72;;;9.96;62.52
29359;BME280;16347;53.232;6.556;2023-02-28T03:06:52;103157.50;;;9.98;62.55
29359;BME280;16347;53.232;6.556;2023-02-28T03:09:21;103157.88;;;9.92;62.37
29359;BME280;16347;53.232;6.556;2023-02-28T03:11:50;103161.69;;;9.89;62.49
29359;BME280;16347;53.232;6.556;2023-02-28T03:14:26;103158.00;;;9.90;62.72
29359;BME280;16347;53.232;6.556;2023-02-28T03:17:08;103162.44;;;9.91;62.83
29359;BME280;16347;53.232;6.556;2023-02-28T03:19:47;103165.47;;;9.87;63.09
29359;BME280;16347;53.232;6.556;2023-02-28T03:22:36;103151.50;;;9.93;63.33
29359;BME280;16347;53.232;6.556;2023-02-28T03:25:13;103159.44;;;9.96;63.25
29359;BME280;16347;53.232;6.556;2023-02-28T03:27:52;103161.69;;;9.89;63.27
29359;BME280;16347;53.232;6.556;2023-02-28T03:30:27;103164.41;;;9.89;63.53
29359;BME280;16347;53.232;6.556;2023-02-28T03:33:03;103161.28;;;9.95;62.76
29359;BME280;16347;53.232;6.556;2023-02-28T03:35:36;103161.28;;;9.95;63.07
29359;BME280;16347;53.232;6.556;2023-02-28T03:38:11;103165.38;;;9.88;62.88
29359;BME280;16347;53.232;6.556;2023-02-28T03:40:43;103159.56;;;9.80;62.52
29359;BME280;16347;53.232;6.556;2023-02-28T03:43:19;103161.59;;;9.76;62.51
29359;BME280;16347;53.232;6.556;2023-02-28T03:45:50;103157.22;;;9.74;62.98
29359;BME280;16347;53.232;6.556;2023-02-28T03:48:23;103164.09;;;9.65;62.29
29359;BME280;16347;53.232;6.556;2023-02-28T03:50:55;103167.28;;;9.44;62.53
29359;BME280;16347;53.232;6.556;2023-02-28T03:53:29;103165.59;;;9.27;62.72
29359;BME280;16347;53.232;6.556;2023-02-28T03:56:03;103166.28;;;9.31;62.76
29359;BME280;16347;53.232;6.556;2023-02-28T03:58:37;103163.38;;;9.19;62.67
29359;BME280;16347;53.232;6.556;2023-02-28T04:01:13;103175.84;;;9.08;62.62
29359;BME280;16347;53.232;6.556;2023-02-28T04:03:43;103167.94;;;8.89;62.86
29359;BME280;16347;53.232;6.556;2023-02-28T04:06:15;103163.84;;;8.82;62.90
29359;BME280;16347;53.232;6.556;2023-02-28T04:08:45;103170.63;;;8.59;63.25
29359;BME280;16347;53.232;6.556;2023-02-28T04:11:20;103178.91;;;8.56;64.09
29359;BME280;16347;53.232;6.556;2023-02-28T04:13:49;103170.16;;;8.67;65.22
29359;BME280;16347;53.232;6.556;2023-02-28T04:16:17;103177.94;;;8.73;64.40
29359;BME280;16347;53.232;6.556;2023-02-28T04:19:00;103177.78;;;8.76;64.76
29359;BME280;16347;53.232;6.556;2023-02-28T04:21:31;103177.34;;;8.68;64.15
29359;BME280;16347;53.232;6.556;2023-02-28T04:24:01;103186.16;;;8.71;64.11
29359;BME280;16347;53.232;6.556;2023-02-28T04:26:30;103185.03;;;8.75;63.80
29359;BME280;16347;53.232;6.556;2023-02-28T04:28:58;103183.09;;;8.77;63.82
29359;BME280;16347;53.232;6.556;2023-02-28T04:31:27;103177.59;;;8.79;63.23
29359;BME280;16347;53.232;6.556;2023-02-28T04:33:55;103176.81;;;8.61;63.12
29359;BME280;16347;53.232;6.556;2023-02-28T04:36:24;103181.09;;;8.50;63.01
29359;BME280;16347;53.232;6.556;2023-02-28T04:38:52;103177.41;;;8.19;63.87
29359;BME280;16347;53.232;6.556;2023-02-28T04:41:22;103185.38;;;8.22;64.30
29359;BME280;16347;53.232;6.556;2023-02-28T04:43:50;103177.84;;;8.12;64.30
29359;BME280;16347;53.232;6.556;2023-02-28T04:46:19;103186.56;;;8.01;64.67
29359;BME280;16347;53.232;6.556;2023-02-28T04:48:47;103178.09;;;8.07;65.25
29359;BME280;16347;53.232;6.556;2023-02-28T04:51:17;103185.34;;;8.07;64.85
29359;BME280;16347;53.232;6.556;2023-02-28T04:53:46;103196.59;;;7.99;64.63
29359;BME280;16347;53.232;6.556;2023-02-28T04:56:16;103198.00;;;7.91;65.04
29359;BME280;16347;53.232;6.556;2023-02-28T04:58:46;103192.41;;;7.94;65.17
29359;BME280;16347;53.232;6.556;2023-02-28T05:01:21;103183.22;;;7.96;65.61
29359;BME280;16347;53.232;6.556;2023-02-28T05:03:51;103187.16;;;7.91;65.42
29359;BME280;16347;53.232;6.556;2023-02-28T05:06:20;103186.88;;;7.80;64.91
29359;BME280;16347;53.232;6.556;2023-02-28T05:08:48;103193.72;;;7.87;64.76
29359;BME280;16347;53.232;6.556;2023-02-28T05:11:18;103194.09;;;7.63;64.79
29359;BME280;16347;53.232;6.556;2023-02-28T05:13:48;103187.06;;;7.59;65.07
29359;BME280;16347;53.232;6.556;2023-02-28T05:16:17;103195.63;;;7.52;65.30
29359;BME280;16347;53.232;6.556;2023-02-28T05:18:46;103193.72;;;7.54;64.95
29359;BME280;16347;53.232;6.556;2023-02-28T05:21:35;103192.03;;;7.51;65.45
29359;BME280;16347;53.232;6.556;2023-02-28T05:24:05;103187.19;;;7.41;65.31
29359;BME280;16347;53.232;6.556;2023-02-28T05:26:35;103186.38;;;7.39;65.58
29359;BME280;16347;53.232;6.556;2023-02-28T05:29:05;103193.88;;;7.34;65.62
29359;BME280;16347;53.232;6.556;2023-02-28T05:31:33;103196.19;;;7.41;65.75
29359;BME280;16347;53.232;6.556;2023-02-28T05:34:02;103193.72;;;7.37;65.83
29359;BME280;16347;53.232;6.556;2023-02-28T05:36:31;103199.06;;;7.38;65.51
29359;BME280;16347;53.232;6.556;2023-02-28T05:38:59;103196.81;;;7.29;65.33
29359;BME280;16347;53.232;6.556;2023-02-28T05:41:27;103195.25;;;7.25;65.73
29359;BME280;16347;53.232;6.556;2023-02-28T05:43:57;103200.75;;;7.23;65.92
29359;BME280;16347;53.232;6.556;2023-02-28T05:46:27;103207.34;;;7.18;66.17
29359;BME280;16347;53.232;6.556;2023-02-28T05:48:55;103201.78;;;7.38;66.35
29359;BME280;16347;53.232;6.556;2023-02-28T05:51:26;103207.81;;;7.43;65.80
29359;BME280;16347;53.232;6.556;2023-02-28T05:53:58;103201.63;;;7.41;65.75
29359;BME280;16347;53.232;6.556;2023-02-28T05:56:27;103204.56;;;7.37;65.42
29359;BME280;16347;53.232;6.556;2023-02-28T05:58:55;103207.97;;;7.40;65.59
29359;BME280;16347;53.232;6.556;2023-02-28T06:01:36;103201.94;;;7.35;65.83
29359;BME280;16347;53.232;6.556;2023-02-28T06:04:07;103204.66;;;7.35;65.41
29359;BME280;16347;53.232;6.556;2023-02-28T06:06:51;103206.00;;;7.27;65.16
29359;BME280;16347;53.232;6.556;2023-02-28T06:09:20;103203.28;;;7.27;66.10
29359;BME280;16347;53.232;6.556;2023-02-28T06:11:48;103209.72;;;7.07;66.06
29359;BME280;16347;53.232;6.556;2023-02-28T06:14:18;103220.16;;;6.97;66.34
29359;BME280;16347;53.232;6.556;2023-02-28T06:16:48;103217.31;;;6.82;66.36
29359;BME280;16347;53.232;6.556;2023-02-28T06:19:16;103221.09;;;6.96;66.79
29359;BME280;16347;53.232;6.556;2023-02-28T06:21:44;103218.78;;;7.06;66.35
29359;BME280;16347;53.232;6.556;2023-02-28T06:24:13;103221.31;;;6.92;66.24
29359;BME280;16347;53.232;6.556;2023-02-28T06:26:41;103219.75;;;6.88;66.82
29359;BME280;16347;53.232;6.556;2023-02-28T06:29:09;103230.94;;;6.80;67.12
29359;BME280;16347;53.232;6.556;2023-02-28T06:31:37;103233.41;;;7.02;66.81
29359;BME280;16347;53.232;6.556;2023-02-28T06:34:07;103225.25;;;7.03;66.46
29359;BME280;16347;53.232;6.556;2023-02-28T06:36:38;103234.41;;;6.82;66.16
29359;BME280;16347;53.232;6.556;2023-02-28T06:39:06;103237.94;;;6.84;67.04
29359;BME280;16347;53.232;6.556;2023-02-28T06:41:35;103243.59;;;6.97;66.91
29359;BME280;16347;53.232;6.556;2023-02-28T06:44:20;103237.81;;;7.04;66.70
29359;BME280;16347;53.232;6.556;2023-02-28T06:46:49;103252.63;;;7.14;66.03
29359;BME280;16347;53.232;6.556;2023-02-28T06:49:18;103249.44;;;6.70;66.86
29359;BME280;16347;53.232;6.556;2023-02-28T06:51:47;103255.06;;;6.66;66.66
29359;BME280;16347;53.232;6.556;2023-02-28T06:54:16;103262.88;;;6.72;66.55
29359;BME280;16347;53.232;6.556;2023-02-28T06:56:45;103271.16;;;6.50;67.17
29359;BME280;16347;53.232;6.556;2023-02-28T06:59:14;103268.56;;;6.66;67.37
29359;BME280;16347;53.232;6.556;2023-02-28T07:01:42;103273.03;;;6.67;66.82
29359;BME280;16347;53.232;6.556;2023-02-28T07:04:11;103262.88;;;6.72;66.74
29359;BME280;16347;53.232;6.556;2023-02-28T07:06:41;103270.66;;;6.61;66.45
29359;BME280;16347;53.232;6.556;2023-02-28T07:09:09;103271.38;;;6.46;66.29
29359;BME280;16347;53.232;6.556;2023-02-28T07:11:37;103275.84;;;6.47;66.50
29359;BME280;16347;53.232;6.556;2023-02-28T07:14:06;103276.72;;;6.47;66.54
29359;BME280;16347;53.232;6.556;2023-02-28T07:16:34;103276.72;;;6.47;66.02
29359;BME280;16347;53.232;6.556;2023-02-28T07:19:03;103284.78;;;6.29;66.22
29359;BME280;16347;53.232;6.556;2023-02-28T07:21:31;103283.25;;;6.23;66.02
29359;BME280;16347;53.232;6.556;2023-02-28T07:24:01;103291.13;;;6.09;66.38
29359;BME280;16347;53.232;6.556;2023-02-28T07:26:29;103295.72;;;6.07;66.74
29359;BME280;16347;53.232;6.556;2023-02-28T07:29:00;103294.06;;;6.42;66.68
29359;BME280;16347;53.232;6.556;2023-02-28T07:31:29;103292.59;;;6.35;66.84
29359;BME280;16347;53.232;6.556;2023-02-28T07:33:57;103294.22;;;6.39;66.25
29359;BME280;16347;53.232;6.556;2023-02-28T07:36:25;103303.16;;;6.41;66.13
29359;BME280;16347;53.232;6.556;2023-02-28T07:38:53;103299.91;;;6.33;66.40
29359;BME280;16347;53.232;6.556;2023-02-28T07:41:23;103297.44;;;6.47;66.22
29359;BME280;16347;53.232;6.556;2023-02-28T07:43:55;103301.09;;;6.46;65.61
29359;BME280;16347;53.232;6.556;2023-02-28T07:46:23;103298.34;;;6.47;66.09
29359;BME280;16347;53.232;6.556;2023-02-28T07:48:55;103290.66;;;6.57;65.60
29359;BME280;16347;53.232;6.556;2023-02-28T07:51:26;103299.22;;;6.48;65.78
29359;BME280;16347;53.232;6.556;2023-02-28T07:53:54;103290.81;;;6.54;65.51
29359;BME280;16347;53.232;6.556;2023-02-28T07:56:24;103295.09;;;6.77;66.13
29359;BME280;16347;53.232;6.556;2023-02-28T07:58:52;103291.66;;;6.73;64.99
29359;BME280;16347;53.232;6.556;2023-02-28T08:01:21;103287.56;;;6.83;64.72
29359;BME280;16347;53.232;6.556;2023-02-28T08:03:49;103283.81;;;6.86;64.88
29359;BME280;16347;53.232;6.556;2023-02-28T08:06:20;103297.28;;;6.87;64.57
29359;BME280;16347;53.232;6.556;2023-02-28T08:08:48;103290.88;;;7.07;65.10
29359;BME280;16347;53.232;6.556;2023-02-28T08:11:17;103288.59;;;7.16;64.89
29359;BME280;16347;53.232;6.556;2023-02-28T08:13:47;103297.84;;;7.30;64.61
29359;BME280;16347;53.232;6.556;2023-02-28T08:16:15;103302.34;;;7.12;63.78
29359;BME280;16347;53.232;6.556;2023-02-28T08:18:48;103302.47;;;7.28;63.88
29359;BME280;16347;53.232;6.556;2023-02-28T08:21:17;103301.03;;;7.38;64.13
29359;BME280;16347;53.232;6.556;2023-02-28T08:23:46;103293.22;;;7.49;64.14
29359;BME280;16347;53.232;6.556;2023-02-28T08:26:15;103294.50;;;7.59;64.10
29359;BME280;16347;53.232;6.556;2023-02-28T08:28:43;103301.66;;;7.60;63.24
29359;BME280;16347;53.232;6.556;2023-02-28T08:31:14;103297.53;;;7.70;63.34
29359;BME280;16347;53.232;6.556;2023-02-28T08:33:43;103306.19;;;7.77;63.00
29359;BME280;16347;53.232;6.556;2023-02-28T08:36:12;103302.63;;;7.76;62.88
29359;BME280;16347;53.232;6.556;2023-02-28T08:38:41;103299.78;;;7.62;62.55
29359;BME280;16347;53.232;6.556;2023-02-28T08:41:12;103302.31;;;7.65;63.06
29359;BME280;16347;53.232;6.556;2023-02-28T08:43:40;103300.22;;;7.53;63.13
29359;BME280;16347;53.232;6.556;2023-02-28T08:46:11;103310.50;;;7.63;63.09
29359;BME280;16347;53.232;6.556;2023-02-28T08:48:42;103312.81;;;7.71;63.58
29359;BME280;16347;53.232;6.556;2023-02-28T08:51:12;103317.59;;;7.83;62.89
29359;BME280;16347;53.232;6.556;2023-02-28T08:53:43;103314.09;;;7.64;63.42
29359;BME280;16347;53.232;6.556;2023-02-28T08:56:12;103319.13;;;7.54;63.88
29359;BME280;16347;53.232;6.556;2023-02-28T08:58:41;103314.50;;;7.56;63.60
29359;BME280;16347;53.232;6.556;2023-02-28T09:01:10;103322.72;;;7.55;63.63
29359;BME280;16347;53.232;6.556;2023-02-28T09:03:39;103323.97;;;7.48;64.44
29359;BME280;16347;53.232;6.556;2023-02-28T09:06:10;103319.44;;;7.48;64.42
29359;BME280;16347;53.232;6.556;2023-02-28T09:08:38;103311.72;;;7.58;64.81
29359;BME280;16347;53.232;6.556;2023-02-28T09:11:07;103316.47;;;7.70;64.52
29359;BME280;16347;53.232;6.556;2023-02-28T09:13:35;103324.28;;;7.76;64.01
29359;BME280;16347;53.232;6.556;2023-02-28T09:16:05;103326.13;;;7.76;63.25
29359;BME280;16347;53.232;6.556;2023-02-28T09:18:34;103320.56;;;7.61;62.92
29359;BME280;16347;53.232;6.556;2023-02-28T09:21:03;103324.69;;;7.51;63.17
29359;BME280;16347;53.232;6.556;2023-02-28T09:23:33;103322.94;;;7.50;64.15
29359;BME280;16347;53.232;6.556;2023-02-28T09:26:01;103315.38;;;7.57;63.64
29359;BME280;16347;53.232;6.556;2023-02-28T09:28:30;103313.06;;;7.49;62.78
29359;BME280;16347;53.232;6.556;2023-02-28T09:30:58;103316.63;;;7.50;63.51
29359;BME280;16347;53.232;6.556;2023-02-28T09:33:27;103315.22;;;7.60;63.36
29359;BME280;16347;53.232;6.556;2023-02-28T09:35:58;103313.31;;;7.62;62.85
29359;BME280;16347;53.232;6.556;2023-02-28T09:38:28;103314.50;;;7.73;63.08
29359;BME280;16347;53.232;6.556;2023-02-28T09:41:01;103312.44;;;7.79;62.74
29359;BME280;16347;53.232;6.556;2023-02-28T09:43:34;103308.28;;;7.89;62.18
29359;BME280;16347;53.232;6.556;2023-02-28T09:46:10;103297.34;;;7.90;61.25
29359;BME280;16347;53.232;6.556;2023-02-28T09:48:44;103309.63;;;7.80;61.15
29359;BME280;16347;53.232;6.556;2023-02-28T09:51:27;103309.06;;;7.73;60.92
29359;BME280;16347;53.232;6.556;2023-02-28T09:53:57;103306.91;;;7.80;60.88
29359;BME280;16347;53.232;6.556;2023-02-28T09:56:33;103309.78;;;7.94;60.65
29359;BME280;16347;53.232;6.556;2023-02-28T09:59:11;103310.94;;;8.06;60.51
29359;BME280;16347;53.232;6.556;2023-02-28T10:01:48;103316.28;;;8.07;60.07
29359;BME280;16347;53.232;6.556;2023-02-28T10:04:35;103308.56;;;8.00;59.58
29359;BME280;16347;53.232;6.556;2023-02-28T10:07:10;103314.63;;;8.05;58.86
29359;BME280;16347;53.232;6.556;2023-02-28T10:09:48;103321.78;;;8.06;59.27
29359;BME280;16347;53.232;6.556;2023-02-28T10:12:20;103312.47;;;8.29;59.15
29359;BME280;16347;53.232;6.556;2023-02-28T10:14:53;103309.88;;;8.25;57.71
29359;BME280;16347;53.232;6.556;2023-02-28T10:17:24;103313.44;;;8.26;57.34
29359;BME280;16347;53.232;6.556;2023-02-28T10:19:58;103310.28;;;8.18;57.73
29359;BME280;16347;53.232;6.556;2023-02-28T10:22:38;103314.66;;;8.20;57.39
29359;BME280;16347;53.232;6.556;2023-02-28T10:25:17;103310.66;;;8.27;56.51
29359;BME280;16347;53.232;6.556;2023-02-28T10:27:48;103310.34;;;8.16;55.60
29359;BME280;16347;53.232;6.556;2023-02-28T10:30:17;103313.06;;;8.34;55.75
29359;BME280;16347;53.232;6.556;2023-02-28T10:32:49;103314.47;;;8.41;55.92
29359;BME280;16347;53.232;6.556;2023-02-28T10:35:23;103310.47;;;8.48;56.87
29359;BME280;16347;53.232;6.556;2023-02-28T10:37:54;103300.63;;;8.62;56.42
29359;BME280;16347;53.232;6.556;2023-02-28T10:40:30;103316.44;;;8.54;54.56
29359;BME280;16347;53.232;6.556;2023-02-28T10:43:02;103313.88;;;8.36;52.39
29359;BME280;16347;53.232;6.556;2023-02-28T10:45:32;103309.75;;;8.44;52.74
29359;BME280;16347;53.232;6.556;2023-02-28T10:48:03;103311.25;;;8.50;52.19
29359;BME280;16347;53.232;6.556;2023-02-28T10:50:35;103320.78;;;8.41;52.08
29359;BME280;16347;53.232;6.556;2023-02-28T10:53:14;103316.59;;;8.51;52.46
29359;BME280;16347;53.232;6.556;2023-02-28T10:55:44;103311.06;;;8.53;52.73
29359;BME280;16347;53.232;6.556;2023-02-28T10:58:22;103314.34;;;8.59;53.39
29359;BME280;16347;53.232;6.556;2023-02-28T11:00:51;103308.41;;;8.68;53.66
29359;BME280;16347;53.232;6.556;2023-02-28T11:03:31;103306.50;;;8.86;54.07
29359;BME280;16347;53.232;6.556;2023-02-28T11:06:06;103308.94;;;9.06;54.47
29359;BME280;16347;53.232;6.556;2023-02-28T11:08:44;103302.31;;;9.26;54.02
29359;BME280;16347;53.232;6.556;2023-02-28T11:11:13;103300.44;;;9.42;52.33
29359;BME280;16347;53.232;6.556;2023-02-28T11:13:46;103291.66;;;9.23;50.64
29359;BME280;16347;53.232;6.556;2023-02-28T11:16:16;103284.66;;;9.19;50.39
29359;BME280;16347;53.232;6.556;2023-02-28T11:18:48;103287.19;;;9.22;49.69
29359;BME280;16347;53.232;6.556;2023-02-28T11:21:21;103284.91;;;9.14;49.76
29359;BME280;16347;53.232;6.556;2023-02-28T11:23:54;103289.13;;;9.04;49.79
29359;BME280;16347;53.232;6.556;2023-02-28T11:26:40;103282.34;;;9.27;49.54
29359;BME280;16347;53.232;6.556;2023-02-28T11:29:16;103288.63;;;9.43;50.29
29359;BME280;16347;53.232;6.556;2023-02-28T11:32:02;103279.47;;;9.74;50.95
29359;BME280;16347;53.232;6.556;2023-02-28T11:34:32;103287.31;;;9.64;49.85
29359;BME280;16347;53.232;6.556;2023-02-28T11:37:00;103279.59;;;9.87;49.96
29359;BME280;16347;53.232;6.556;2023-02-28T11:39:32;103279.50;;;10.02;49.41
29359;BME280;16347;53.232;6.556;2023-02-28T11:45:44;103274.28;;;10.42;46.97
29359;BME280;16347;53.232;6.556;2023-02-28T11:48:19;103279.84;;;10.26;46.11
29359;BME280;16347;53.232;6.556;2023-02-28T11:50:56;103282.56;;;10.26;47.26
29359;BME280;16347;53.232;6.556;2023-02-28T11:53:40;103286.66;;;10.33;47.97
29359;BME280;16347;53.232;6.556;2023-02-28T11:56:21;103286.66;;;10.33;48.49
29359;BME280;16347;53.232;6.556;2023-02-28T11:59:01;103285.38;;;10.39;48.30
29359;BME280;16347;53.232;6.556;2023-02-28T12:01:50;103283.03;;;10.47;48.97
29359;BME280;16347;53.232;6.556;2023-02-28T12:04:30;103274.88;;;10.47;47.67
29359;BME280;16347;53.232;6.556;2023-02-28T12:07:11;103265.66;;;10.49;47.77
29359;BME280;16347;53.232;6.556;2023-02-28T12:09:50;103264.16;;;10.58;48.29
29359;BME280;16347;53.232;6.556;2023-02-28T12:12:33;103261.41;;;10.72;48.07
29359;BME280;16347;53.232;6.556;2023-02-28T12:15:19;103257.47;;;10.90;48.09
29359;BME280;16347;53.232;6.556;2023-02-28T12:17:59;103258.50;;;11.02;46.89
29359;BME280;16347;53.232;6.556;2023-02-28T12:20:34;103254.09;;;11.13;46.11
29359;BME280;16347;53.232;6.556;2023-02-28T12:23:23;103250.34;;;11.41;46.76
29359;BME280;16347;53.232;6.556;2023-02-28T12:26:01;103244.19;;;11.64;46.20
29359;BME280;16347;53.232;6.556;2023-02-28T12:28:35;103235.81;;;11.80;46.48
29359;BME280;16347;53.232;6.556;2023-02-28T12:31:09;103235.72;;;11.94;45.30
29359;BME280;16347;53.232;6.556;2023-02-28T12:33:44;103233.09;;;11.93;45.08
29359;BME280;16347;53.232;6.556;2023-02-28T12:36:16;103236.91;;;11.90;45.10
29359;BME280;16347;53.232;6.556;2023-02-28T12:38:48;103241.28;;;11.80;44.58
29359;BME280;16347;53.232;6.556;2023-02-28T12:41:23;103240.16;;;11.70;45.51
29359;BME280;16347;53.232;6.556;2023-02-28T12:44:00;103228.00;;;11.49;45.24
29359;BME280;16347;53.232;6.556;2023-02-28T12:46:32;103229.09;;;11.46;44.54
29359;BME280;16347;53.232;6.556;2023-02-28T12:49:08;103231.81;;;11.46;44.83
29359;BME280;16347;53.232;6.556;2023-02-28T12:51:38;103225.84;;;11.54;43.97
29359;BME280;16347;53.232;6.556;2023-02-28T12:54:14;103225.53;;;11.58;44.35
29359;BME280;16347;53.232;6.556;2023-02-28T12:56:47;103220.09;;;11.58;44.05
29359;BME280;16347;53.232;6.556;2023-02-28T12:59:24;103222.47;;;11.50;42.99
29359;BME280;16347;53.232;6.556;2023-02-28T13:02:09;103213.94;;;11.42;42.46
29359;BME280;16347;53.232;6.556;2023-02-28T13:05:10;103202.09;;;11.43;43.44
29359;BME280;16347;53.232;6.556;2023-02-28T13:08:20;103200.16;;;11.58;43.89
29359;BME280;16347;53.232;6.556;2023-02-28T13:10:52;103203.56;;;11.74;44.08
29359;BME280;16347;53.232;6.556;2023-02-28T13:13:24;103198.00;;;11.88;43.10
29359;BME280;16347;53.232;6.556;2023-02-28T13:15:58;103195.00;;;12.16;44.36
29359;BME280;16347;53.232;6.556;2023-02-28T13:18:30;103182.63;;;12.36;41.51
29359;BME280;16347;53.232;6.556;2023-02-28T13:21:02;103185.13;;;12.39;41.80
29359;BME280;16347;53.232;6.556;2023-02-28T13:23:40;103179.50;;;12.53;42.52
29359;BME280;16347;53.232;6.556;2023-02-28T13:27:10;103190.75;;;12.85;42.38
29359;BME280;16347;53.232;6.556;2023-02-28T13:29:39;103183.22;;;13.00;42.98
29359;BME280;16347;53.232;6.556;2023-02-28T13:32:20;103177.50;;;13.15;42.25
29359;BME280;16347;53.232;6.556;2023-02-28T13:35:34;103183.59;;;13.19;40.59